sensor_id;sensor_type;location;lat;lon;timestamp;P1;durP1;ratioP1;P2;durP2;ratioP2
28311;SDS011;15572;48.810;9.148;2022-07-24T00:04:41;11.63;;;10.18;;
28311;SDS011;15572;48.810;9.148;2022-07-24T00:09:38;10.80;;;9.80;;
28311;SDS011;15572;48.810;9.148;2022-07-24T00:14:34;15.15;;;10.88;;
28311;SDS011;15572;48.810;9.148;2022-07-24T00:19:32;10.65;;;9.55;;
28311;SDS011;15572;48.810;9.148;2022-07-24T00:24:29;12.30;;;9.88;;
28311;SDS011;15572;48.810;9.148;2022-07-24T00:29:26;11.05;;;9.95;;
28311;SDS011;15572;48.810;9.148;2022-07-24T00:34:22;13.07;;;9.68;;
28311;SDS011;15572;48.810;9.148;2022-07-24T00:39:20;11.65;;;9.85;;
28311;SDS011;15572;48.810;9.148;2022-07-24T00:44:17;12.77;;;9.57;;
28311;SDS011;15572;48.810;9.148;2022-07-24T00:49:14;13.30;;;10.05;;
28311;SDS011;15572;48.810;9.148;2022-07-24T00:54:13;12.35;;;10.10;;
28311;SDS011;15572;48.810;9.148;2022-07-24T00:59:11;10.30;;;9.10;;
28311;SDS011;15572;48.810;9.148;2022-07-24T01:04:08;10.55;;;9.45;;
28311;SDS011;15572;48.810;9.148;2022-07-24T01:09:05;10.73;;;9.63;;
28311;SDS011;15572;48.810;9.148;2022-07-24T01:14:01;10.70;;;9.60;;
28311;SDS011;15572;48.810;9.148;2022-07-24T01:18:59;11.75;;;9.45;;
28311;SDS011;15572;48.810;9.148;2022-07-24T01:23:57;11.93;;;9.82;;
28311;SDS011;15572;48.810;9.148;2022-07-24T01:28:54;12.00;;;9.70;;
28311;SDS011;15572;48.810;9.148;2022-07-24T01:33:50;10.93;;;9.63;;
28311;SDS011;15572;48.810;9.148;2022-07-24T01:38:47;10.95;;;9.82;;
28311;SDS011;15572;48.810;9.148;2022-07-24T01:43:45;11.80;;;10.45;;
28311;SDS011;15572;48.810;9.148;2022-07-24T01:48:42;12.93;;;10.18;;
28311;SDS011;15572;48.810;9.148;2022-07-24T01:53:39;11.32;;;10.15;;
28311;SDS011;15572;48.810;9.148;2022-07-24T01:58:36;10.30;;;9.23;;
28311;SDS011;15572;48.810;9.148;2022-07-24T02:03:35;11.20;;;9.93;;
28311;SDS011;15572;48.810;9.148;2022-07-24T02:08:32;13.30;;;10.15;;
28311;SDS011;15572;48.810;9.148;2022-07-24T02:13:28;11.50;;;10.05;;
28311;SDS011;15572;48.810;9.148;2022-07-24T02:18:25;13.05;;;10.77;;
28311;SDS011;15572;48.810;9.148;2022-07-24T02:23:23;12.93;;;10.43;;
28311;SDS011;15572;48.810;9.148;2022-07-24T02:28:19;11.70;;;9.23;;
28311;SDS011;15572;48.810;9.148;2022-07-24T02:33:16;11.90;;;10.43;;
28311;SDS011;15572;48.810;9.148;2022-07-24T02:38:13;13.00;;;10.52;;
28311;SDS011;15572;48.810;9.148;2022-07-24T02:43:10;11.73;;;10.45;;
28311;SDS011;15572;48.810;9.148;2022-07-24T02:48:07;11.18;;;10.07;;
28311;SDS011;15572;48.810;9.148;2022-07-24T02:53:03;14.20;;;10.73;;
28311;SDS011;15572;48.810;9.148;2022-07-24T02:58:00;13.10;;;9.90;;
28311;SDS011;15572;48.810;9.148;2022-07-24T03:02:58;11.75;;;10.55;;
28311;SDS011;15572;48.810;9.148;2022-07-24T03:07:56;12.57;;;10.35;;
28311;SDS011;15572;48.810;9.148;2022-07-24T03:12:52;11.65;;;10.45;;
28311;SDS011;15572;48.810;9.148;2022-07-24T03:17:49;14.63;;;11.02;;
28311;SDS011;15572;48.810;9.148;2022-07-24T03:22:48;12.15;;;10.75;;
28311;SDS011;15572;48.810;9.148;2022-07-24T03:27:45;11.80;;;10.60;;
28311;SDS011;15572;48.810;9.148;2022-07-24T03:32:42;12.38;;;10.65;;
28311;SDS011;15572;48.810;9.148;2022-07-24T03:37:40;11.93;;;10.57;;
28311;SDS011;15572;48.810;9.148;2022-07-24T03:42:38;12.30;;;10.90;;
28311;SDS011;15572;48.810;9.148;2022-07-24T03:47:34;12.40;;;10.70;;
28311;SDS011;15572;48.810;9.148;2022-07-24T03:52:31;12.57;;;11.27;;
28311;SDS011;15572;48.810;9.148;2022-07-24T03:57:27;12.93;;;11.18;;
28311;SDS011;15572;48.810;9.148;2022-07-24T04:02:25;13.30;;;11.90;;
28311;SDS011;15572;48.810;9.148;2022-07-24T04:07:22;12.47;;;11.10;;
28311;SDS011;15572;48.810;9.148;2022-07-24T04:12:18;13.20;;;11.10;;
28311;SDS011;15572;48.810;9.148;2022-07-24T04:17:15;15.68;;;11.15;;
28311;SDS011;15572;48.810;9.148;2022-07-24T04:22:13;12.63;;;11.33;;
28311;SDS011;15572;48.810;9.148;2022-07-24T04:27:09;15.37;;;11.20;;
28311;SDS011;15572;48.810;9.148;2022-07-24T04:32:06;13.60;;;11.50;;
28311;SDS011;15572;48.810;9.148;2022-07-24T04:37:02;15.07;;;11.33;;
28311;SDS011;15572;48.810;9.148;2022-07-24T04:42:00;14.35;;;11.13;;
28311;SDS011;15572;48.810;9.148;2022-07-24T04:46:57;12.77;;;11.17;;
28311;SDS011;15572;48.810;9.148;2022-07-24T04:51:53;14.15;;;11.10;;
28311;SDS011;15572;48.810;9.148;2022-07-24T04:56:50;11.75;;;10.55;;
28311;SDS011;15572;48.810;9.148;2022-07-24T05:01:47;13.85;;;12.07;;
28311;SDS011;15572;48.810;9.148;2022-07-24T05:06:44;14.38;;;11.70;;
28311;SDS011;15572;48.810;9.148;2022-07-24T05:11:41;12.57;;;10.90;;
28311;SDS011;15572;48.810;9.148;2022-07-24T05:16:38;13.07;;;11.68;;
28311;SDS011;15572;48.810;9.148;2022-07-24T05:21:36;13.45;;;11.98;;
28311;SDS011;15572;48.810;9.148;2022-07-24T05:26:32;14.88;;;12.15;;
28311;SDS011;15572;48.810;9.148;2022-07-24T05:31:29;13.45;;;11.88;;
28311;SDS011;15572;48.810;9.148;2022-07-24T05:36:26;14.30;;;12.80;;
28311;SDS011;15572;48.810;9.148;2022-07-24T05:41:23;15.38;;;12.27;;
28311;SDS011;15572;48.810;9.148;2022-07-24T05:46:20;16.25;;;12.75;;
28311;SDS011;15572;48.810;9.148;2022-07-24T05:51:16;15.65;;;13.27;;
28311;SDS011;15572;48.810;9.148;2022-07-24T05:56:13;16.17;;;13.98;;
28311;SDS011;15572;48.810;9.148;2022-07-24T06:01:11;15.90;;;13.38;;
28311;SDS011;15572;48.810;9.148;2022-07-24T06:06:07;16.02;;;13.48;;
28311;SDS011;15572;48.810;9.148;2022-07-24T06:11:04;17.35;;;13.70;;
28311;SDS011;15572;48.810;9.148;2022-07-24T06:16:00;18.05;;;13.15;;
28311;SDS011;15572;48.810;9.148;2022-07-24T06:20:58;15.07;;;13.50;;
28311;SDS011;15572;48.810;9.148;2022-07-24T06:25:55;16.92;;;13.05;;
28311;SDS011;15572;48.810;9.148;2022-07-24T06:30:51;14.30;;;12.27;;
28311;SDS011;15572;48.810;9.148;2022-07-24T06:35:48;16.48;;;12.82;;
28311;SDS011;15572;48.810;9.148;2022-07-24T06:40:45;14.15;;;12.23;;
28311;SDS011;15572;48.810;9.148;2022-07-24T06:45:42;13.63;;;11.43;;
28311;SDS011;15572;48.810;9.148;2022-07-24T06:50:39;13.52;;;11.30;;
28311;SDS011;15572;48.810;9.148;2022-07-24T06:55:35;16.33;;;11.57;;
28311;SDS011;15572;48.810;9.148;2022-07-24T07:00:33;14.05;;;11.68;;
28311;SDS011;15572;48.810;9.148;2022-07-24T07:05:29;12.88;;;11.05;;
28311;SDS011;15572;48.810;9.148;2022-07-24T07:10:26;15.55;;;11.07;;
28311;SDS011;15572;48.810;9.148;2022-07-24T07:15:23;13.95;;;11.90;;
28311;SDS011;15572;48.810;9.148;2022-07-24T07:20:21;13.82;;;11.25;;
28311;SDS011;15572;48.810;9.148;2022-07-24T07:25:17;14.18;;;11.18;;
28311;SDS011;15572;48.810;9.148;2022-07-24T07:30:14;17.05;;;11.10;;
28311;SDS011;15572;48.810;9.148;2022-07-24T07:35:11;13.35;;;10.30;;
28311;SDS011;15572;48.810;9.148;2022-07-24T07:40:09;11.18;;;9.27;;
28311;SDS011;15572;48.810;9.148;2022-07-24T07:45:07;10.77;;;9.68;;
28311;SDS011;15572;48.810;9.148;2022-07-24T07:50:04;13.18;;;9.30;;
28311;SDS011;15572;48.810;9.148;2022-07-24T07:55:01;11.85;;;9.10;;
28311;SDS011;15572;48.810;9.148;2022-07-24T08:00:00;10.90;;;9.38;;
28311;SDS011;15572;48.810;9.148;2022-07-24T08:04:56;10.68;;;9.10;;
28311;SDS011;15572;48.810;9.148;2022-07-24T08:09:53;12.63;;;9.50;;
28311;SDS011;15572;48.810;9.148;2022-07-24T08:14:49;12.00;;;9.77;;
28311;SDS011;15572;48.810;9.148;2022-07-24T08:19:47;11.10;;;9.82;;
28311;SDS011;15572;48.810;9.148;2022-07-24T08:24:43;13.95;;;9.60;;
28311;SDS011;15572;48.810;9.148;2022-07-24T08:29:40;10.13;;;8.88;;
28311;SDS011;15572;48.810;9.148;2022-07-24T08:34:37;14.57;;;9.13;;
28311;SDS011;15572;48.810;9.148;2022-07-24T08:39:34;13.20;;;9.35;;
28311;SDS011;15572;48.810;9.148;2022-07-24T08:44:31;11.65;;;9.25;;
28311;SDS011;15572;48.810;9.148;2022-07-24T08:49:29;10.10;;;9.03;;
28311;SDS011;15572;48.810;9.148;2022-07-24T08:54:27;11.27;;;9.27;;
28311;SDS011;15572;48.810;9.148;2022-07-24T08:59:25;11.65;;;8.95;;
28311;SDS011;15572;48.810;9.148;2022-07-24T09:04:31;11.10;;;9.20;;
28311;SDS011;15572;48.810;9.148;2022-07-24T09:09:28;11.80;;;8.95;;
28311;SDS011;15572;48.810;9.148;2022-07-24T09:14:30;9.25;;;8.27;;
28311;SDS011;15572;48.810;9.148;2022-07-24T09:19:27;12.57;;;9.50;;
28311;SDS011;15572;48.810;9.148;2022-07-24T09:24:24;9.20;;;8.32;;
28311;SDS011;15572;48.810;9.148;2022-07-24T09:29:21;9.60;;;8.70;;
28311;SDS011;15572;48.810;9.148;2022-07-24T09:34:19;14.43;;;9.32;;
28311;SDS011;15572;48.810;9.148;2022-07-24T09:39:17;9.15;;;8.25;;
28311;SDS011;15572;48.810;9.148;2022-07-24T09:44:14;11.40;;;8.65;;
28311;SDS011;15572;48.810;9.148;2022-07-24T09:49:17;10.02;;;8.30;;
28311;SDS011;15572;48.810;9.148;2022-07-24T09:54:26;11.65;;;9.07;;
28311;SDS011;15572;48.810;9.148;2022-07-24T09:59:25;10.13;;;8.85;;
28311;SDS011;15572;48.810;9.148;2022-07-24T10:04:26;10.43;;;8.25;;
28311;SDS011;15572;48.810;9.148;2022-07-24T10:09:27;8.80;;;8.00;;
28311;SDS011;15572;48.810;9.148;2022-07-24T10:14:25;9.75;;;8.75;;
28311;SDS011;15572;48.810;9.148;2022-07-24T10:19:21;12.13;;;8.60;;
28311;SDS011;15572;48.810;9.148;2022-07-24T10:29:56;12.65;;;8.43;;
28311;SDS011;15572;48.810;9.148;2022-07-24T10:34:58;9.82;;;8.48;;
28311;SDS011;15572;48.810;9.148;2022-07-24T10:40:07;13.65;;;7.95;;
28311;SDS011;15572;48.810;9.148;2022-07-24T10:45:15;10.48;;;8.45;;
28311;SDS011;15572;48.810;9.148;2022-07-24T10:50:14;11.70;;;8.27;;
28311;SDS011;15572;48.810;9.148;2022-07-24T10:55:22;10.95;;;8.10;;
28311;SDS011;15572;48.810;9.148;2022-07-24T11:00:23;11.43;;;8.25;;
28311;SDS011;15572;48.810;9.148;2022-07-24T11:05:30;9.85;;;8.00;;
28311;SDS011;15572;48.810;9.148;2022-07-24T11:10:43;10.82;;;7.85;;
28311;SDS011;15572;48.810;9.148;2022-07-24T11:21:12;11.15;;;7.88;;
28311;SDS011;15572;48.810;9.148;2022-07-24T11:31:35;8.60;;;7.70;;
28311;SDS011;15572;48.810;9.148;2022-07-24T11:36:35;35.28;;;17.25;;
28311;SDS011;15572;48.810;9.148;2022-07-24T11:41:42;10.57;;;8.38;;
28311;SDS011;15572;48.810;9.148;2022-07-24T11:46:41;12.25;;;7.72;;
28311;SDS011;15572;48.810;9.148;2022-07-24T11:51:42;7.90;;;6.85;;
28311;SDS011;15572;48.810;9.148;2022-07-24T11:56:40;8.10;;;7.30;;
28311;SDS011;15572;48.810;9.148;2022-07-24T12:01:37;9.38;;;7.50;;
28311;SDS011;15572;48.810;9.148;2022-07-24T12:06:34;11.48;;;8.40;;
28311;SDS011;15572;48.810;9.148;2022-07-24T12:11:34;13.13;;;8.02;;
28311;SDS011;15572;48.810;9.148;2022-07-24T12:16:30;7.68;;;6.97;;
28311;SDS011;15572;48.810;9.148;2022-07-24T12:21:27;9.15;;;7.10;;
28311;SDS011;15572;48.810;9.148;2022-07-24T12:26:23;8.93;;;6.65;;
28311;SDS011;15572;48.810;9.148;2022-07-24T12:31:21;8.82;;;6.90;;
28311;SDS011;15572;48.810;9.148;2022-07-24T12:36:17;8.65;;;7.18;;
28311;SDS011;15572;48.810;9.148;2022-07-24T12:41:16;8.38;;;6.95;;
28311;SDS011;15572;48.810;9.148;2022-07-24T12:46:16;10.05;;;7.10;;
28311;SDS011;15572;48.810;9.148;2022-07-24T12:51:15;8.98;;;7.50;;
28311;SDS011;15572;48.810;9.148;2022-07-24T12:56:13;8.40;;;6.55;;
28311;SDS011;15572;48.810;9.148;2022-07-24T13:01:10;7.53;;;6.72;;
28311;SDS011;15572;48.810;9.148;2022-07-24T13:06:07;8.32;;;7.50;;
28311;SDS011;15572;48.810;9.148;2022-07-24T13:11:05;8.45;;;7.15;;
28311;SDS011;15572;48.810;9.148;2022-07-24T13:16:01;9.43;;;6.95;;
28311;SDS011;15572;48.810;9.148;2022-07-24T13:20:58;7.68;;;6.88;;
28311;SDS011;15572;48.810;9.148;2022-07-24T13:25:54;7.63;;;6.82;;
28311;SDS011;15572;48.810;9.148;2022-07-24T13:30:52;19.80;;;8.27;;
28311;SDS011;15572;48.810;9.148;2022-07-24T13:35:48;7.75;;;6.30;;
28311;SDS011;15572;48.810;9.148;2022-07-24T13:40:45;7.38;;;6.47;;
28311;SDS011;15572;48.810;9.148;2022-07-24T13:45:41;10.40;;;6.95;;
28311;SDS011;15572;48.810;9.148;2022-07-24T13:50:39;7.03;;;6.22;;
28311;SDS011;15572;48.810;9.148;2022-07-24T13:55:36;7.50;;;6.05;;
28311;SDS011;15572;48.810;9.148;2022-07-24T14:00:32;8.02;;;6.43;;
28311;SDS011;15572;48.810;9.148;2022-07-24T14:05:29;7.40;;;5.80;;
28311;SDS011;15572;48.810;9.148;2022-07-24T14:10:27;6.88;;;6.15;;
28311;SDS011;15572;48.810;9.148;2022-07-24T14:15:24;8.15;;;6.38;;
28311;SDS011;15572;48.810;9.148;2022-07-24T14:20:21;7.65;;;6.60;;
28311;SDS011;15572;48.810;9.148;2022-07-24T14:25:18;7.43;;;6.35;;
28311;SDS011;15572;48.810;9.148;2022-07-24T14:30:16;6.85;;;6.15;;
28311;SDS011;15572;48.810;9.148;2022-07-24T14:35:12;6.95;;;6.22;;
28311;SDS011;15572;48.810;9.148;2022-07-24T14:40:09;7.10;;;6.45;;
28311;SDS011;15572;48.810;9.148;2022-07-24T14:45:06;6.80;;;6.10;;
28311;SDS011;15572;48.810;9.148;2022-07-24T14:50:05;7.43;;;6.72;;
28311;SDS011;15572;48.810;9.148;2022-07-24T14:55:02;8.90;;;6.95;;
28311;SDS011;15572;48.810;9.148;2022-07-24T15:00:00;8.68;;;6.70;;
28311;SDS011;15572;48.810;9.148;2022-07-24T15:04:57;7.75;;;6.18;;
28311;SDS011;15572;48.810;9.148;2022-07-24T15:09:55;7.10;;;6.40;;
28311;SDS011;15572;48.810;9.148;2022-07-24T15:14:51;9.38;;;6.55;;
28311;SDS011;15572;48.810;9.148;2022-07-24T15:19:48;6.95;;;6.15;;
28311;SDS011;15572;48.810;9.148;2022-07-24T15:24:44;6.75;;;6.05;;
28311;SDS011;15572;48.810;9.148;2022-07-24T15:29:42;6.82;;;6.13;;
28311;SDS011;15572;48.810;9.148;2022-07-24T15:34:38;8.75;;;5.90;;
28311;SDS011;15572;48.810;9.148;2022-07-24T15:39:35;8.82;;;6.32;;
28311;SDS011;15572;48.810;9.148;2022-07-24T15:44:32;6.30;;;5.78;;
28311;SDS011;15572;48.810;9.148;2022-07-24T15:49:30;7.38;;;6.68;;
28311;SDS011;15572;48.810;9.148;2022-07-24T15:54:26;8.43;;;6.60;;
28311;SDS011;15572;48.810;9.148;2022-07-24T15:59:23;7.65;;;6.85;;
28311;SDS011;15572;48.810;9.148;2022-07-24T16:04:19;8.18;;;6.72;;
28311;SDS011;15572;48.810;9.148;2022-07-24T16:09:17;8.95;;;7.25;;
28311;SDS011;15572;48.810;9.148;2022-07-24T16:14:14;13.80;;;6.82;;
28311;SDS011;15572;48.810;9.148;2022-07-24T16:19:11;8.30;;;6.63;;
28311;SDS011;15572;48.810;9.148;2022-07-24T16:24:08;8.18;;;6.65;;
28311;SDS011;15572;48.810;9.148;2022-07-24T16:29:06;7.60;;;6.80;;
28311;SDS011;15572;48.810;9.148;2022-07-24T16:34:03;8.32;;;7.20;;
28311;SDS011;15572;48.810;9.148;2022-07-24T16:38:59;8.23;;;6.88;;
28311;SDS011;15572;48.810;9.148;2022-07-24T16:43:56;9.20;;;7.28;;
28311;SDS011;15572;48.810;9.148;2022-07-24T16:48:53;7.90;;;6.78;;
28311;SDS011;15572;48.810;9.148;2022-07-24T16:53:50;7.72;;;6.53;;
28311;SDS011;15572;48.810;9.148;2022-07-24T16:58:46;7.50;;;6.80;;
28311;SDS011;15572;48.810;9.148;2022-07-24T17:03:43;7.57;;;6.88;;
28311;SDS011;15572;48.810;9.148;2022-07-24T17:08:41;7.30;;;6.60;;
28311;SDS011;15572;48.810;9.148;2022-07-24T17:13:37;8.15;;;6.97;;
28311;SDS011;15572;48.810;9.148;2022-07-24T17:18:34;7.45;;;6.72;;
28311;SDS011;15572;48.810;9.148;2022-07-24T17:23:30;10.07;;;7.45;;
28311;SDS011;15572;48.810;9.148;2022-07-24T17:28:28;12.60;;;7.50;;
28311;SDS011;15572;48.810;9.148;2022-07-24T17:33:25;7.47;;;6.78;;
28311;SDS011;15572;48.810;9.148;2022-07-24T17:38:22;6.82;;;6.22;;
28311;SDS011;15572;48.810;9.148;2022-07-24T17:43:18;8.00;;;7.22;;
28311;SDS011;15572;48.810;9.148;2022-07-24T17:48:16;7.93;;;6.63;;
28311;SDS011;15572;48.810;9.148;2022-07-24T17:53:13;8.02;;;6.95;;
28311;SDS011;15572;48.810;9.148;2022-07-24T17:58:09;12.10;;;6.82;;
28311;SDS011;15572;48.810;9.148;2022-07-24T18:03:06;8.05;;;7.13;;
28311;SDS011;15572;48.810;9.148;2022-07-24T18:08:04;7.88;;;7.07;;
28311;SDS011;15572;48.810;9.148;2022-07-24T18:13:00;8.13;;;7.32;;
28311;SDS011;15572;48.810;9.148;2022-07-24T18:17:57;8.10;;;7.30;;
28311;SDS011;15572;48.810;9.148;2022-07-24T18:22:53;8.93;;;7.15;;
28311;SDS011;15572;48.810;9.148;2022-07-24T18:27:51;10.80;;;7.88;;
28311;SDS011;15572;48.810;9.148;2022-07-24T18:32:48;9.95;;;8.10;;
28311;SDS011;15572;48.810;9.148;2022-07-24T18:37:45;9.10;;;7.72;;
28311;SDS011;15572;48.810;9.148;2022-07-24T18:42:41;9.40;;;8.20;;
28311;SDS011;15572;48.810;9.148;2022-07-24T18:47:39;13.63;;;6.63;;
28311;SDS011;15572;48.810;9.148;2022-07-24T18:52:35;11.05;;;8.68;;
28311;SDS011;15572;48.810;9.148;2022-07-24T18:57:32;11.65;;;8.65;;
28311;SDS011;15572;48.810;9.148;2022-07-24T19:02:28;10.02;;;8.43;;
28311;SDS011;15572;48.810;9.148;2022-07-24T19:07:26;10.77;;;8.60;;
28311;SDS011;15572;48.810;9.148;2022-07-24T19:12:23;9.60;;;8.65;;
28311;SDS011;15572;48.810;9.148;2022-07-24T19:17:21;11.82;;;9.02;;
28311;SDS011;15572;48.810;9.148;2022-07-24T19:22:19;10.05;;;8.57;;
28311;SDS011;15572;48.810;9.148;2022-07-24T19:27:16;9.70;;;8.70;;
28311;SDS011;15572;48.810;9.148;2022-07-24T19:32:13;9.70;;;8.70;;
28311;SDS011;15572;48.810;9.148;2022-07-24T19:37:11;10.27;;;8.80;;
28311;SDS011;15572;48.810;9.148;2022-07-24T19:42:07;12.32;;;9.05;;
28311;SDS011;15572;48.810;9.148;2022-07-24T19:47:05;10.82;;;9.20;;
28311;SDS011;15572;48.810;9.148;2022-07-24T19:52:02;10.20;;;8.98;;
28311;SDS011;15572;48.810;9.148;2022-07-24T19:56:58;10.15;;;9.10;;
28311;SDS011;15572;48.810;9.148;2022-07-24T20:01:55;10.70;;;9.55;;
28311;SDS011;15572;48.810;9.148;2022-07-24T20:06:53;12.55;;;9.10;;
28311;SDS011;15572;48.810;9.148;2022-07-24T20:11:49;11.05;;;9.18;;
28311;SDS011;15572;48.810;9.148;2022-07-24T20:16:47;11.45;;;8.77;;
28311;SDS011;15572;48.810;9.148;2022-07-24T20:21:43;11.38;;;9.05;;
28311;SDS011;15572;48.810;9.148;2022-07-24T20:26:41;9.48;;;8.48;;
28311;SDS011;15572;48.810;9.148;2022-07-24T20:31:38;11.25;;;9.55;;
28311;SDS011;15572;48.810;9.148;2022-07-24T20:36:35;9.93;;;8.70;;
28311;SDS011;15572;48.810;9.148;2022-07-24T20:41:31;9.63;;;8.57;;
28311;SDS011;15572;48.810;9.148;2022-07-24T20:46:29;11.88;;;9.20;;
28311;SDS011;15572;48.810;9.148;2022-07-24T20:51:26;12.25;;;9.57;;
28311;SDS011;15572;48.810;9.148;2022-07-24T20:56:22;11.20;;;9.48;;
28311;SDS011;15572;48.810;9.148;2022-07-24T21:01:19;9.60;;;8.70;;
28311;SDS011;15572;48.810;9.148;2022-07-24T21:06:16;11.05;;;9.80;;
28311;SDS011;15572;48.810;9.148;2022-07-24T21:11:13;13.73;;;10.20;;
28311;SDS011;15572;48.810;9.148;2022-07-24T21:16:10;11.75;;;10.43;;
28311;SDS011;15572;48.810;9.148;2022-07-24T21:21:06;10.98;;;9.88;;
28311;SDS011;15572;48.810;9.148;2022-07-24T21:26:04;11.65;;;9.57;;
28311;SDS011;15572;48.810;9.148;2022-07-24T21:31:01;10.05;;;9.05;;
28311;SDS011;15572;48.810;9.148;2022-07-24T21:35:58;12.45;;;9.75;;
28311;SDS011;15572;48.810;9.148;2022-07-24T21:40:54;10.48;;;9.43;;
28311;SDS011;15572;48.810;9.148;2022-07-24T21:45:52;12.05;;;10.52;;
28311;SDS011;15572;48.810;9.148;2022-07-24T21:50:49;11.77;;;10.00;;
28311;SDS011;15572;48.810;9.148;2022-07-24T21:55:46;11.45;;;10.02;;
28311;SDS011;15572;48.810;9.148;2022-07-24T22:00:43;15.32;;;10.57;;
28311;SDS011;15572;48.810;9.148;2022-07-24T22:05:43;12.90;;;10.40;;
28311;SDS011;15572;48.810;9.148;2022-07-24T22:10:40;12.02;;;9.93;;
28311;SDS011;15572;48.810;9.148;2022-07-24T22:15:36;11.93;;;10.57;;
28311;SDS011;15572;48.810;9.148;2022-07-24T22:20:33;11.50;;;10.30;;
28311;SDS011;15572;48.810;9.148;2022-07-24T22:25:31;11.27;;;10.18;;
28311;SDS011;15572;48.810;9.148;2022-07-24T22:30:28;13.75;;;10.27;;
28311;SDS011;15572;48.810;9.148;2022-07-24T22:35:24;13.18;;;10.70;;
28311;SDS011;15572;48.810;9.148;2022-07-24T22:40:21;12.10;;;10.63;;
28311;SDS011;15572;48.810;9.148;2022-07-24T22:45:20;12.25;;;10.82;;
28311;SDS011;15572;48.810;9.148;2022-07-24T22:50:17;15.05;;;11.48;;
28311;SDS011;15572;48.810;9.148;2022-07-24T22:55:14;12.05;;;10.80;;
28311;SDS011;15572;48.810;9.148;2022-07-24T23:00:12;12.40;;;11.00;;
28311;SDS011;15572;48.810;9.148;2022-07-24T23:05:11;12.57;;;11.27;;
28311;SDS011;15572;48.810;9.148;2022-07-24T23:10:08;12.57;;;11.27;;
28311;SDS011;15572;48.810;9.148;2022-07-24T23:15:05;12.07;;;10.88;;
28311;SDS011;15572;48.810;9.148;2022-07-24T23:20:03;13.10;;;11.07;;
28311;SDS011;15572;48.810;9.148;2022-07-24T23:25:02;12.55;;;11.25;;
28311;SDS011;15572;48.810;9.148;2022-07-24T23:29:59;12.48;;;11.20;;
28311;SDS011;15572;48.810;9.148;2022-07-24T23:34:56;12.82;;;11.10;;
28311;SDS011;15572;48.810;9.148;2022-07-24T23:39:53;12.52;;;10.98;;
28311;SDS011;15572;48.810;9.148;2022-07-24T23:44:51;13.50;;;11.00;;
28311;SDS011;15572;48.810;9.148;2022-07-24T23:49:47;14.48;;;11.48;;
28311;SDS011;15572;48.810;9.148;2022-07-24T23:54:44;12.43;;;11.23;;
28311;SDS011;15572;48.810;9.148;2022-07-24T23:59:40;13.10;;;11.05;;
